Chemehuevi Valley, California
Current Conditions -  °F | °C
As of 12:56 AM on Saturday 25 Oct 2014 (Local Time) from KEED Reporting Station
Clear Clear  
Wind Chill: 73°   Ceiling: Unl
Heat Index: 73°   Visibility: 10mi
Dew Point: 40°   Wind: 3mph
Humidity: 30%   Direction: 320°NW
Pressure: 29.97"   Gusts: NA
Location:  34.5025°N, 114.671°W
Report Text: KEED 250856Z AUTO 32003KT 10SM CLR 23/04 A2997 RMK AO2 SLP120 T02280044 53005
Loading
Personal Weather Stations






























Interactive Weather Map
Tropical Storm Tracking
New forecast layout! Learn more

10-Day Weather Forecast

Advertisements
Track Severe Weather on mobile